Time;durP1;ratioP1;P1;durP2;ratioP2;P2;SDS_P1;SDS_P2;PMS_P1;PMS_P2;Temp;Humidity;BMP_temperature;BMP_pressure;BME280_temperature;BME280_humidity;BME280_pressure;Samples;Min_cycle;Max_cycle;Signal;HPM_P1;HPM_P2
2023/03/15 00:01:53;;;;;;;13.40;12.02;;;;;;;6.62;48.01;93926.56;5115979;28;20608;-71
2023/03/15 00:04:20;;;;;;;12.60;11.40;;;;;;;6.54;47.50;93922.88;5118379;28;20198;-71
2023/03/15 00:06:47;;;;;;;12.15;10.95;;;;;;;6.57;47.82;93911.19;5118927;28;20196;-71
2023/03/15 00:09:13;;;;;;;13.38;12.15;;;;;;;6.62;47.61;93910.13;5118506;28;20204;-71
2023/03/15 00:11:42;;;;;;;12.43;11.23;;;;;;;6.65;46.65;93912.97;5118201;28;20274;-72
2023/03/15 00:14:08;;;;;;;11.05;9.95;;;;;;;6.65;47.17;93921.19;5118478;28;20207;-72
2023/03/15 00:16:35;;;;;;;10.38;9.38;;;;;;;6.71;47.08;93918.94;5118589;28;20272;-72
2023/03/15 00:19:02;;;;;;;10.43;9.52;;;;;;;6.74;46.80;93912.75;5118404;28;20280;-72
2023/03/15 00:21:29;;;;;;;10.65;9.65;;;;;;;6.75;46.58;93908.84;5119291;28;20275;-72
2023/03/15 00:23:56;;;;;;;10.07;9.18;;;;;;;6.76;46.42;93910.47;5117992;28;20202;-72
2023/03/15 00:26:23;;;;;;;10.43;9.52;;;;;;;6.79;46.20;93919.91;5118104;28;20503;-71
2023/03/15 00:28:51;;;;;;;9.82;8.93;;;;;;;6.82;46.27;93909.00;5118758;28;20196;-71
2023/03/15 00:31:20;;;;;;;9.82;8.93;;;;;;;6.80;45.90;93905.84;5118525;28;20192;-72
2023/03/15 00:33:47;;;;;;;10.75;9.65;;;;;;;6.82;45.86;93903.53;5117846;28;20203;-71
2023/03/15 00:36:14;;;;;;;9.95;8.95;;;;;;;6.81;46.57;93906.66;5117967;28;20208;-71
2023/03/15 00:38:42;;;;;;;10.00;9.10;;;;;;;6.82;46.77;93903.53;5118544;28;20188;-71
2023/03/15 00:41:11;;;;;;;10.02;9.13;;;;;;;6.86;46.61;93898.94;5118117;28;20652;-71
2023/03/15 00:43:37;;;;;;;10.38;9.38;;;;;;;6.87;46.51;93905.22;5117474;28;20234;-72
2023/03/15 00:46:06;;;;;;;10.70;9.70;;;;;;;6.90;46.96;93905.31;5117692;28;20547;-72
2023/03/15 00:48:34;;;;;;;10.45;9.40;;;;;;;6.93;46.82;93888.13;5118158;28;20196;-72
2023/03/15 00:51:05;;;;;;;9.88;9.07;;;;;;;6.97;46.76;93879.97;5117994;28;20192;-72
2023/03/15 00:53:32;;;;;;;10.43;9.43;;;;;;;7.03;47.03;93881.28;5118130;28;20596;-72
2023/03/15 00:56:04;;;;;;;11.07;9.93;;;;;;;6.87;48.55;93875.88;5117442;28;20208;-72
2023/03/15 00:58:30;;;;;;;10.80;9.80;;;;;;;6.71;49.10;93878.63;5117677;28;20192;-71
2023/03/15 01:00:57;;;;;;;10.88;9.77;;;;;;;6.72;49.36;93876.72;5117529;28;20211;-72
2023/03/15 01:03:26;;;;;;;11.00;10.00;;;;;;;6.70;49.34;93871.56;5117204;28;20649;-72
2023/03/15 01:05:53;;;;;;;10.27;9.40;;;;;;;6.69;48.90;93866.47;5117094;28;20207;-72
2023/03/15 01:08:20;;;;;;;10.80;9.70;;;;;;;6.75;48.66;93870.50;5117007;28;20536;-72
2023/03/15 01:10:46;;;;;;;10.60;9.60;;;;;;;6.81;48.78;93865.53;5117557;28;20192;-72
2023/03/15 01:13:13;;;;;;;9.98;9.07;;;;;;;6.83;48.22;93865.97;5116951;28;20196;-73
2023/03/15 01:15:40;;;;;;;10.57;9.57;;;;;;;6.89;48.99;93857.09;5117006;28;20196;-72
2023/03/15 01:18:06;;;;;;;11.55;10.45;;;;;;;6.77;49.77;93857.22;5117134;28;20211;-72
2023/03/15 01:20:34;;;;;;;12.00;10.90;;;;;;;6.67;50.37;93864.06;5117486;28;20215;-72
2023/03/15 01:23:01;;;;;;;12.18;10.98;;;;;;;6.58;50.25;93849.78;5117154;28;20195;-72
2023/03/15 01:25:28;;;;;;;11.13;10.02;;;;;;;6.47;50.80;93846.00;5117307;28;20188;-72
2023/03/15 01:27:55;;;;;;;11.00;10.00;;;;;;;6.39;51.30;93838.75;5116806;28;20206;-72
2023/03/15 01:30:21;;;;;;;12.77;10.75;;;;;;;6.41;51.16;93845.47;5117618;28;20484;-72
2023/03/15 01:32:48;;;;;;;10.95;9.90;;;;;;;6.48;51.07;93845.63;5116878;28;20196;-72
2023/03/15 01:35:15;;;;;;;11.10;10.00;;;;;;;6.55;49.94;93852.44;5116620;28;20615;-71
2023/03/15 01:37:43;;;;;;;11.18;10.05;;;;;;;6.63;50.26;93838.53;5117190;28;20631;-72
2023/03/15 01:40:13;;;;;;;11.10;10.10;;;;;;;6.71;49.88;93834.00;5116722;28;20226;-72
2023/03/15 01:42:51;;;;;;;11.13;10.13;;;;;;;6.67;50.33;93836.66;5119030;27;20204;-72
2023/03/15 01:45:55;;;;;;;13.43;12.02;;;;;;;6.62;50.65;93833.41;5120182;27;20198;-72
2023/03/15 01:48:25;;;;;;;15.20;13.25;;;;;;;6.58;50.48;93836.06;5119562;27;20194;-72
2023/03/15 01:50:53;;;;;;;14.52;13.02;;;;;;;6.58;50.74;93825.13;5120614;27;20187;-72
2023/03/15 01:53:22;;;;;;;15.45;13.95;;;;;;;6.60;50.63;93822.00;5119954;27;20218;-71
2023/03/15 01:55:48;;;;;;;15.27;13.77;;;;;;;6.60;51.21;93816.53;5120152;27;20203;-71
2023/03/15 01:58:16;;;;;;;15.48;13.88;;;;;;;6.62;50.74;93816.97;5119811;27;20202;-72
2023/03/15 02:00:42;;;;;;;15.07;13.57;;;;;;;6.60;51.14;93806.38;5120106;27;20284;-72
2023/03/15 02:03:13;;;;;;;12.80;11.57;;;;;;;6.50;52.26;93810.47;5119731;27;20210;-72
2023/03/15 02:05:45;;;;;;;11.98;10.88;;;;;;;6.31;52.68;93793.19;5119575;27;20248;-72
2023/03/15 02:08:13;;;;;;;11.65;10.50;;;;;;;6.17;52.75;93796.38;5119343;27;20247;-72
2023/03/15 02:10:43;;;;;;;11.65;10.45;;;;;;;6.13;53.09;93790.84;5119319;27;20647;-72
2023/03/15 02:13:11;;;;;;;12.38;11.18;;;;;;;6.07;52.74;93795.00;5119319;27;20252;-72
2023/03/15 02:15:38;;;;;;;11.70;10.60;;;;;;;6.01;53.43;93790.94;5119076;27;20660;-72
2023/03/15 02:18:05;;;;;;;11.75;10.55;;;;;;;6.05;52.56;93791.81;5119438;27;20692;-72
2023/03/15 02:20:35;;;;;;;11.43;10.32;;;;;;;6.14;52.20;93792.44;5119437;27;20215;-72
2023/03/15 02:23:04;;;;;;;11.77;10.68;;;;;;;6.23;52.36;93792.25;5137240;27;20191;-72
2023/03/15 02:25:38;;;;;;;11.75;10.73;;;;;;;6.27;52.22;93784.91;5118148;27;20209;-72
2023/03/15 02:28:08;;;;;;;11.20;10.13;;;;;;;6.19;52.88;93785.88;5119143;27;20619;-72
2023/03/15 02:30:35;;;;;;;10.73;9.70;;;;;;;6.21;52.36;93784.41;5119306;27;20203;-72
2023/03/15 02:33:03;;;;;;;11.07;9.82;;;;;;;6.26;51.94;93777.84;5118856;27;20198;-72
2023/03/15 02:35:31;;;;;;;11.23;10.02;;;;;;;6.26;51.27;93778.63;5119157;27;20190;-71
2023/03/15 02:37:58;;;;;;;11.18;10.05;;;;;;;6.27;51.14;93777.47;5119001;27;20520;-71
2023/03/15 02:40:28;;;;;;;10.38;9.40;;;;;;;6.30;50.88;93786.13;5118590;27;20211;-71
2023/03/15 02:42:57;;;;;;;11.23;10.13;;;;;;;6.35;51.49;93783.91;5115049;28;20231;-72
2023/03/15 02:45:26;;;;;;;11.45;10.25;;;;;;;6.36;51.11;93769.06;5115475;28;20199;-72
2023/03/15 02:47:53;;;;;;;10.60;9.63;;;;;;;6.33;50.74;93767.03;5114993;28;20192;-72
2023/03/15 02:50:20;;;;;;;11.23;10.10;;;;;;;6.32;50.81;93773.69;5115262;28;20200;-72
2023/03/15 02:52:46;;;;;;;11.27;10.23;;;;;;;6.29;50.48;93765.38;5115608;28;20250;-72
2023/03/15 02:55:13;;;;;;;10.82;9.88;;;;;;;6.25;50.51;93771.56;5114838;28;20218;-72
2023/03/15 02:57:40;;;;;;;11.18;10.07;;;;;;;6.20;50.20;93768.31;5115159;28;20677;-72
2023/03/15 03:00:13;;;;;;;11.15;10.15;;;;;;;6.18;50.86;93759.66;5114735;28;20219;-72
2023/03/15 03:02:42;;;;;;;11.20;10.10;;;;;;;6.16;50.85;93760.00;5115353;28;20196;-72
2023/03/15 03:05:09;;;;;;;11.05;9.95;;;;;;;6.19;51.00;93759.31;5115559;28;20192;-72
2023/03/15 03:07:36;;;;;;;11.52;10.30;;;;;;;6.19;51.62;93753.81;5115524;28;20531;-72
2023/03/15 03:10:03;;;;;;;12.15;11.05;;;;;;;6.06;52.70;93754.28;5115275;28;20196;-72
2023/03/15 03:12:30;;;;;;;11.32;10.32;;;;;;;5.93;52.82;93748.16;5115680;28;20191;-72
2023/03/15 03:14:57;;;;;;;12.27;11.02;;;;;;;5.72;53.91;93748.41;5114962;28;20249;-72
2023/03/15 03:17:24;;;;;;;11.88;10.70;;;;;;;5.69;54.18;93749.88;5114961;28;20199;-72
2023/03/15 03:19:52;;;;;;;12.30;11.15;;;;;;;5.69;54.83;93751.84;5114700;28;20222;-72
2023/03/15 03:22:23;;;;;;;12.35;11.05;;;;;;;5.71;55.03;93742.13;5114926;28;20184;-72
2023/03/15 03:24:50;;;;;;;12.48;11.18;;;;;;;5.70;54.86;93740.56;5115324;28;20204;-72
2023/03/15 03:27:17;;;;;;;11.63;10.63;;;;;;;5.59;54.98;93733.22;5114379;28;20255;-72
2023/03/15 03:29:44;;;;;;;11.30;10.13;;;;;;;5.57;55.64;93730.84;5114670;28;20205;-72
2023/03/15 03:32:11;;;;;;;11.65;10.52;;;;;;;5.65;55.27;93740.00;5114489;28;20199;-72
2023/03/15 03:34:38;;;;;;;11.73;10.55;;;;;;;5.73;54.84;93739.81;5114628;28;20192;-72
2023/03/15 03:37:06;;;;;;;12.50;11.30;;;;;;;5.76;54.68;93736.38;5114485;28;20200;-72
2023/03/15 03:39:33;;;;;;;12.68;11.38;;;;;;;5.81;55.07;93729.88;5114602;28;20187;-72
2023/03/15 03:42:00;;;;;;;13.05;11.63;;;;;;;5.79;54.23;93729.41;5114070;28;20227;-72
2023/03/15 03:44:27;;;;;;;14.32;12.82;;;;;;;5.78;54.00;93725.09;5114617;28;20243;-72
2023/03/15 03:46:53;;;;;;;11.60;10.40;;;;;;;5.81;53.60;93732.59;5114901;28;20196;-73
2023/03/15 03:49:20;;;;;;;12.88;11.50;;;;;;;5.86;53.43;93724.09;5114501;28;20191;-72
2023/03/15 03:51:47;;;;;;;11.57;10.40;;;;;;;5.89;53.51;93717.13;5114529;28;20210;-72
2023/03/15 03:54:15;;;;;;;12.48;11.27;;;;;;;5.90;53.32;93718.72;5114366;28;20207;-73
2023/03/15 03:56:42;;;;;;;11.32;10.23;;;;;;;5.90;53.14;93713.25;5115511;28;20497;-72
2023/03/15 03:59:09;;;;;;;12.25;11.15;;;;;;;5.93;53.58;93707.09;5114352;28;20192;-72
2023/03/15 04:01:36;;;;;;;14.18;10.93;;;;;;;5.85;54.40;93708.06;5114158;28;20651;-72
2023/03/15 04:04:03;;;;;;;12.75;11.38;;;;;;;5.74;54.88;93696.88;5114237;28;20196;-72
2023/03/15 04:06:30;;;;;;;13.27;11.18;;;;;;;5.74;54.52;93702.34;5114203;28;20200;-72
2023/03/15 04:08:56;;;;;;;12.52;10.77;;;;;;;5.77;54.58;93696.94;5115031;28;20188;-72
2023/03/15 04:11:25;;;;;;;11.68;10.55;;;;;;;5.83;54.23;93702.13;5115469;28;20199;-72
2023/03/15 04:14:13;;;;;;;12.18;10.80;;;;;;;5.81;53.20;93699.78;5115484;28;20263;-72
2023/03/15 04:16:50;;;;;;;12.70;11.32;;;;;;;5.82;53.45;93695.88;5115100;28;20188;-72
2023/03/15 04:19:33;;;;;;;13.43;11.43;;;;;;;5.87;53.32;93703.78;5114124;28;20223;-71
2023/03/15 04:22:05;;;;;;;12.63;11.32;;;;;;;5.89;53.43;93706.97;5114271;28;20223;-72
2023/03/15 04:24:32;;;;;;;14.20;11.93;;;;;;;5.94;53.43;93706.72;5114375;28;20204;-72
2023/03/15 04:27:01;;;;;;;14.57;12.43;;;;;;;5.98;53.12;93698.59;5114498;28;20581;-72
2023/03/15 04:29:28;;;;;;;13.93;12.43;;;;;;;5.96;54.05;93701.69;5115048;28;20188;-73
2023/03/15 04:32:00;;;;;;;13.27;12.07;;;;;;;5.98;53.13;93702.13;5113895;28;20203;-73
2023/03/15 04:34:28;;;;;;;12.60;11.40;;;;;;;5.96;53.31;93693.50;5114527;28;20507;-73
2023/03/15 04:36:55;;;;;;;13.63;12.23;;;;;;;5.97;53.04;93697.81;5114696;28;20192;-72
2023/03/15 04:39:22;;;;;;;13.52;12.10;;;;;;;5.96;53.01;93687.22;5114516;28;20574;-73
2023/03/15 04:41:49;;;;;;;12.93;11.63;;;;;;;5.95;53.64;93686.41;5113899;28;20247;-73
2023/03/15 04:44:17;;;;;;;13.18;11.70;;;;;;;5.98;52.97;93685.69;5114114;28;20228;-73
2023/03/15 04:46:44;;;;;;;13.18;11.98;;;;;;;5.97;52.89;93686.84;5113861;28;20196;-72
2023/03/15 04:49:11;;;;;;;12.40;10.98;;;;;;;6.02;52.50;93683.84;5117589;28;20199;-71
2023/03/15 04:51:37;;;;;;;13.57;12.30;;;;;;;6.08;53.03;93689.03;5117629;28;20608;-72
2023/03/15 04:54:04;;;;;;;16.75;12.80;;;;;;;5.97;54.70;93686.06;5117465;28;20603;-72
2023/03/15 04:56:31;;;;;;;16.27;12.48;;;;;;;5.82;55.96;93679.47;5117877;28;20195;-73
2023/03/15 04:58:58;;;;;;;19.08;13.05;;;;;;;5.69;56.67;93680.72;5117308;28;20290;-72
2023/03/15 05:01:28;;;;;;;18.13;14.77;;;;;;;5.62;56.49;93675.06;5117543;28;20215;-72
2023/03/15 05:03:55;;;;;;;20.45;16.88;;;;;;;5.65;55.67;93683.38;5117265;28;20207;-74
2023/03/15 05:06:22;;;;;;;19.42;15.52;;;;;;;5.68;54.86;93684.59;5117694;28;20206;-73
2023/03/15 05:08:49;;;;;;;16.63;14.30;;;;;;;5.66;55.42;93686.88;5118026;28;20546;-71
2023/03/15 05:11:16;;;;;;;25.73;21.45;;;;;;;5.63;55.33;93688.41;5118414;28;20188;-72
2023/03/15 05:13:42;;;;;;;28.27;25.17;;;;;;;5.68;54.57;93687.34;5117615;28;20425;-72
2023/03/15 05:16:09;;;;;;;29.50;23.13;;;;;;;5.69;54.27;93691.66;5118458;28;20218;-71
2023/03/15 05:18:38;;;;;;;27.45;24.48;;;;;;;5.72;53.99;93689.00;5119528;28;20188;-70
2023/03/15 05:21:06;;;;;;;26.50;23.70;;;;;;;5.76;53.59;93689.88;5118095;28;20211;-72
2023/03/15 05:23:33;;;;;;;23.20;20.52;;;;;;;5.77;53.70;93688.75;5117384;28;20214;-72
2023/03/15 05:26:00;;;;;;;20.25;18.10;;;;;;;5.80;52.98;93685.28;5117233;28;20195;-71
2023/03/15 05:28:27;;;;;;;25.42;21.67;;;;;;;5.88;53.64;93682.69;5117072;28;20199;-71
2023/03/15 05:30:54;;;;;;;26.23;21.83;;;;;;;5.88;52.84;93679.97;5116944;28;20192;-71
2023/03/15 05:33:21;;;;;;;23.90;21.50;;;;;;;5.89;52.66;93681.56;5117802;28;20223;-71
2023/03/15 05:35:49;;;;;;;22.55;20.25;;;;;;;5.86;52.46;93682.28;5118540;28;20199;-70
2023/03/15 05:38:16;;;;;;;21.85;19.65;;;;;;;5.93;52.03;93682.47;5120244;28;20191;-71
2023/03/15 05:40:44;;;;;;;23.15;19.35;;;;;;;5.97;52.08;93681.38;5120462;28;20298;-71
2023/03/15 05:43:11;;;;;;;18.42;16.52;;;;;;;6.02;51.15;93677.56;5119355;28;20284;-71
2023/03/15 05:45:38;;;;;;;19.55;17.55;;;;;;;6.08;51.14;93675.34;5118850;28;20223;-70
2023/03/15 05:48:06;;;;;;;19.65;16.17;;;;;;;6.07;51.63;93669.09;5119933;28;20206;-71
2023/03/15 05:50:33;;;;;;;17.85;16.00;;;;;;;6.15;51.35;93667.31;5119477;28;20200;-71
2023/03/15 05:53:01;;;;;;;17.73;14.98;;;;;;;6.17;50.38;93674.00;5119558;28;20198;-71
2023/03/15 05:55:28;;;;;;;18.20;15.65;;;;;;;6.21;50.61;93674.88;5119949;28;20184;-71
2023/03/15 05:57:54;;;;;;;19.13;16.50;;;;;;;6.27;51.12;93672.63;5118903;28;20210;-71
2023/03/15 06:00:22;;;;;;;22.70;18.48;;;;;;;6.25;51.18;93664.78;5117853;28;20231;-71
2023/03/15 06:02:48;;;;;;;22.20;16.13;;;;;;;6.26;51.43;93673.78;5117204;28;20631;-72
2023/03/15 06:05:15;;;;;;;21.65;16.80;;;;;;;6.32;51.85;93677.03;5116780;28;20211;-71
2023/03/15 06:07:42;;;;;;;15.88;13.95;;;;;;;6.58;51.83;93676.41;5116455;28;20203;-71
2023/03/15 06:10:11;;;;;;;17.83;14.05;;;;;;;6.74;51.36;93671.59;5116723;28;20200;-70
2023/03/15 06:12:38;;;;;;;14.45;12.40;;;;;;;6.77;50.65;93672.84;5117901;28;20207;-71
2023/03/15 06:15:06;;;;;;;17.52;11.65;;;;;;;6.77;50.46;93670.09;5118139;28;20195;-70
2023/03/15 06:17:33;;;;;;;12.05;9.32;;;;;;;6.81;51.02;93685.44;5117726;28;20196;-70
2023/03/15 06:20:00;;;;;;;10.57;8.10;;;;;;;6.86;50.76;93684.34;5117274;28;20206;-70
2023/03/15 06:22:27;;;;;;;9.05;7.18;;;;;;;6.87;49.36;93681.25;5117695;28;20219;-72
2023/03/15 06:24:53;;;;;;;8.15;6.78;;;;;;;6.90;49.40;93680.53;5117684;28;20195;-71
2023/03/15 06:27:22;;;;;;;8.90;7.25;;;;;;;6.91;48.69;93684.06;5118362;28;20195;-71
2023/03/15 06:29:49;;;;;;;7.78;6.85;;;;;;;6.95;47.94;93679.44;5117983;28;20204;-72
2023/03/15 06:32:15;;;;;;;7.07;6.38;;;;;;;6.98;48.84;93670.50;5117343;28;20248;-71
2023/03/15 06:34:42;;;;;;;8.55;6.53;;;;;;;7.03;49.00;93667.44;5116789;28;20195;-71
2023/03/15 06:37:09;;;;;;;7.63;6.30;;;;;;;7.07;49.07;93668.28;5117283;28;20285;-72
2023/03/15 06:39:36;;;;;;;9.68;6.78;;;;;;;7.07;48.36;93670.25;5116795;28;20205;-71
2023/03/15 06:42:03;;;;;;;8.15;7.25;;;;;;;7.09;48.69;93673.44;5116510;28;20565;-71
2023/03/15 06:44:32;;;;;;;9.43;6.80;;;;;;;7.13;48.83;93668.81;5116495;28;20304;-71
2023/03/15 06:46:59;;;;;;;9.20;7.22;;;;;;;7.18;48.49;93663.00;5117253;28;20202;-71
2023/03/15 06:49:25;;;;;;;8.55;7.43;;;;;;;7.22;48.70;93664.63;5117060;28;20594;-71
2023/03/15 06:51:52;;;;;;;9.98;7.43;;;;;;;7.24;49.37;93664.28;5116450;28;20209;-71
2023/03/15 06:54:19;;;;;;;10.45;7.30;;;;;;;7.26;49.06;93670.19;5116465;28;20206;-71
2023/03/15 06:56:46;;;;;;;8.23;7.40;;;;;;;7.31;48.89;93671.84;5116434;28;20191;-71
2023/03/15 06:59:12;;;;;;;7.68;6.88;;;;;;;7.39;47.95;93670.81;5116736;28;20203;-70
2023/03/15 07:01:41;;;;;;;8.27;6.80;;;;;;;7.45;46.55;93666.59;5116403;28;20666;-70
2023/03/15 07:04:08;;;;;;;8.05;6.55;;;;;;;7.51;47.98;93662.38;5116500;28;20210;-70
2023/03/15 07:06:35;;;;;;;7.40;6.63;;;;;;;7.57;46.94;93660.91;5116848;28;20219;-70
2023/03/15 07:09:02;;;;;;;8.68;6.90;;;;;;;7.65;47.21;93659.06;5115798;28;20191;-70
2023/03/15 07:11:28;;;;;;;8.18;7.10;;;;;;;7.70;46.78;93656.81;5115324;28;20203;-70
2023/03/15 07:13:55;;;;;;;8.10;7.20;;;;;;;7.79;46.86;93655.75;5115607;28;20191;-70
2023/03/15 07:16:22;;;;;;;11.88;9.75;;;;;;;7.90;47.08;93656.69;5115574;28;20786;-70
2023/03/15 07:18:52;;;;;;;10.60;9.60;;;;;;;7.97;47.26;93656.81;5116209;28;20196;-70
2023/03/15 07:21:19;;;;;;;11.15;9.45;;;;;;;8.05;47.17;93663.97;5115717;28;20308;-71
2023/03/15 07:23:45;;;;;;;11.93;9.80;;;;;;;8.14;46.08;93664.50;5115983;28;20521;-71
2023/03/15 07:26:12;;;;;;;10.27;8.02;;;;;;;8.12;44.53;93666.81;5115460;28;20215;-70
2023/03/15 07:28:40;;;;;;;8.70;7.88;;;;;;;8.11;45.40;93673.50;5115769;28;20203;-70
2023/03/15 07:31:06;;;;;;;8.07;7.38;;;;;;;8.11;45.06;93659.75;5115964;28;20202;-70
2023/03/15 07:33:35;;;;;;;8.15;7.35;;;;;;;8.13;45.00;93648.38;5116425;28;20176;-70
2023/03/15 07:36:04;;;;;;;8.70;7.72;;;;;;;8.18;46.03;93640.63;5115750;28;20210;-70
2023/03/15 07:38:31;;;;;;;8.63;7.78;;;;;;;8.30;45.54;93645.09;5115923;28;20200;-71
2023/03/15 07:41:01;;;;;;;8.68;7.30;;;;;;;8.42;45.22;93655.06;5115780;28;20199;-71
2023/03/15 07:43:28;;;;;;;8.82;7.88;;;;;;;8.56;45.56;93651.72;5115963;28;20227;-70
2023/03/15 07:45:54;;;;;;;7.60;6.65;;;;;;;8.66;44.74;93654.59;5116922;28;20593;-70
2023/03/15 07:48:21;;;;;;;7.85;6.85;;;;;;;8.74;44.52;93649.19;5115499;28;20210;-71
2023/03/15 07:50:48;;;;;;;10.43;6.80;;;;;;;8.75;44.03;93654.31;5115765;28;20195;-70
2023/03/15 07:53:17;;;;;;;7.15;6.45;;;;;;;8.79;43.82;93637.88;5115807;28;20202;-70
2023/03/15 07:56:02;;;;;;;7.53;6.57;;;;;;;8.83;43.10;93633.97;5115431;28;20203;-70
2023/03/15 07:58:29;;;;;;;9.48;8.48;;;;;;;8.90;44.73;93631.31;5116024;28;20203;-70
2023/03/15 08:00:56;;;;;;;9.00;8.02;;;;;;;8.95;43.72;93632.13;5115316;28;20218;-70
2023/03/15 08:03:25;;;;;;;10.75;7.68;;;;;;;8.95;43.96;93630.16;5115458;28;20222;-70
2023/03/15 08:05:52;;;;;;;10.32;8.77;;;;;;;8.96;43.74;93631.75;5115636;28;20191;-70
2023/03/15 08:08:20;;;;;;;10.70;7.90;;;;;;;8.83;43.58;93635.94;5115474;28;20196;-70
2023/03/15 08:10:47;;;;;;;8.52;7.68;;;;;;;8.83;44.57;93639.47;5115365;28;20623;-71
2023/03/15 08:13:14;;;;;;;7.38;6.70;;;;;;;8.88;43.32;93635.59;5115247;28;20204;-71
2023/03/15 08:15:41;;;;;;;9.70;8.00;;;;;;;8.90;44.38;93623.06;5115428;28;20200;-71
2023/03/15 08:18:08;;;;;;;11.57;8.30;;;;;;;8.98;44.48;93617.63;5115317;28;20195;-71
2023/03/15 08:20:34;;;;;;;8.45;7.65;;;;;;;9.05;44.20;93614.94;5115452;28;20210;-71
2023/03/15 08:23:01;;;;;;;10.40;6.57;;;;;;;9.08;44.09;93620.47;5117092;28;20227;-71
2023/03/15 08:25:30;;;;;;;6.80;6.18;;;;;;;9.23;44.44;93626.13;5119928;28;20186;-68
2023/03/15 08:27:57;;;;;;;8.45;6.30;;;;;;;9.28;43.42;93626.53;5119526;28;20196;-71
2023/03/15 08:30:24;;;;;;;6.82;6.32;;;;;;;9.25;42.97;93621.78;5118800;28;20242;-71
2023/03/15 08:32:51;;;;;;;7.43;6.00;;;;;;;9.32;43.95;93616.34;5119005;28;20530;-71
2023/03/15 08:35:20;;;;;;;7.45;6.63;;;;;;;9.48;44.56;93610.59;5119027;28;20210;-71
2023/03/15 08:37:46;;;;;;;7.75;6.40;;;;;;;9.60;44.61;93602.03;5119475;28;20211;-71
2023/03/15 08:40:14;;;;;;;8.35;6.53;;;;;;;9.70;44.65;93597.00;5119294;28;20625;-71
2023/03/15 08:42:42;;;;;;;8.88;7.00;;;;;;;9.75;44.53;93597.41;5121917;27;20222;-71
2023/03/15 08:45:10;;;;;;;8.68;7.63;;;;;;;9.87;44.34;93601.81;5122544;27;20213;-71
2023/03/15 08:47:37;;;;;;;7.82;7.03;;;;;;;9.98;43.69;93597.16;5121917;27;20207;-71
2023/03/15 08:50:05;;;;;;;8.35;7.50;;;;;;;10.07;44.38;93596.84;5122892;27;20199;-71
2023/03/15 08:52:32;;;;;;;8.02;7.22;;;;;;;10.07;43.59;93594.88;5122522;27;20290;-71
2023/03/15 08:54:59;;;;;;;9.60;7.47;;;;;;;10.07;44.29;93605.88;5123051;27;20186;-72
2023/03/15 08:57:27;;;;;;;10.10;7.85;;;;;;;10.03;43.86;93601.53;5122659;27;20202;-71
2023/03/15 08:59:56;;;;;;;7.85;7.05;;;;;;;9.94;41.64;93595.56;5122167;27;20657;-72
2023/03/15 09:02:23;;;;;;;7.95;6.07;;;;;;;9.71;41.89;93598.56;5122167;27;20214;-71
2023/03/15 09:04:49;;;;;;;8.13;7.15;;;;;;;9.52;43.01;93599.63;5122057;27;20194;-71
2023/03/15 09:07:16;;;;;;;9.27;7.90;;;;;;;9.55;42.89;93587.81;5122472;27;20199;-71
2023/03/15 09:09:46;;;;;;;8.15;6.68;;;;;;;9.58;42.99;93585.09;5122050;27;20209;-71
2023/03/15 09:12:14;;;;;;;7.43;6.15;;;;;;;9.61;42.97;93595.34;5121899;27;20191;-71
2023/03/15 09:14:40;;;;;;;7.10;6.50;;;;;;;9.46;43.06;93601.94;5121664;27;20627;-71
2023/03/15 09:17:09;;;;;;;8.27;6.32;;;;;;;9.49;43.61;93598.41;5121556;27;20523;-71
2023/03/15 09:19:36;;;;;;;8.23;7.07;;;;;;;9.46;43.75;93596.44;5121858;27;20191;-71
2023/03/15 09:22:03;;;;;;;8.13;6.35;;;;;;;9.46;44.05;93601.16;5139820;27;20218;-71
2023/03/15 09:24:30;;;;;;;9.15;6.40;;;;;;;9.42;43.54;93597.56;5121611;27;20599;-71
2023/03/15 09:26:56;;;;;;;12.65;8.40;;;;;;;9.44;43.93;93600.72;5121556;27;20261;-71
2023/03/15 09:29:23;;;;;;;9.30;6.15;;;;;;;9.47;44.19;93608.22;5121741;27;20186;-72
2023/03/15 09:31:50;;;;;;;6.70;6.10;;;;;;;9.42;43.68;93597.56;5121440;27;20199;-71
2023/03/15 09:34:19;;;;;;;8.80;5.80;;;;;;;9.47;43.95;93595.25;5121068;27;20191;-71
2023/03/15 09:36:51;;;;;;;7.35;5.60;;;;;;;9.62;44.53;93585.94;5121029;27;20207;-71
2023/03/15 09:39:19;;;;;;;7.30;6.03;;;;;;;9.74;43.79;93586.81;5121600;27;20210;-71
2023/03/15 09:41:48;;;;;;;6.70;5.25;;;;;;;9.85;43.70;93587.66;5121400;27;20187;-71
2023/03/15 09:44:30;;;;;;;6.03;5.43;;;;;;;10.00;44.09;93577.50;5117611;28;20246;-71
2023/03/15 09:47:05;;;;;;;5.97;5.45;;;;;;;10.04;43.82;93570.06;5117221;28;20203;-71
2023/03/15 09:49:41;;;;;;;7.82;5.93;;;;;;;10.06;43.40;93573.22;5117847;28;20187;-71
2023/03/15 09:52:18;;;;;;;6.32;5.72;;;;;;;9.92;42.52;93562.13;5117044;28;20203;-71
2023/03/15 09:54:48;;;;;;;6.10;5.57;;;;;;;9.81;42.80;93570.34;5116746;28;20620;-71
2023/03/15 09:57:18;;;;;;;8.38;5.60;;;;;;;9.68;43.07;93558.03;5118060;28;20191;-71
2023/03/15 09:59:47;;;;;;;6.57;5.88;;;;;;;9.60;42.92;93563.50;5117410;28;20192;-71
2023/03/15 10:02:18;;;;;;;7.63;6.05;;;;;;;9.59;43.74;93570.19;5117471;28;20222;-71
2023/03/15 10:04:47;;;;;;;7.63;6.45;;;;;;;9.63;43.89;93565.50;5117784;28;20207;-71
2023/03/15 10:07:15;;;;;;;13.77;12.23;;;;;;;9.67;43.81;93573.78;5117047;28;20195;-71
2023/03/15 10:09:43;;;;;;;8.00;7.20;;;;;;;9.74;43.96;93579.31;5116652;28;20203;-71
2023/03/15 10:12:12;;;;;;;8.63;6.30;;;;;;;9.80;44.07;93586.06;5117794;28;20190;-71
2023/03/15 10:14:57;;;;;;;6.88;5.25;;;;;;;9.95;44.29;93578.69;5117492;28;20172;-71
2023/03/15 10:17:31;;;;;;;5.95;5.35;;;;;;;10.12;43.59;93583.47;5096109;28;20215;-71
2023/03/15 10:20:08;;;;;;;6.63;5.78;;;;;;;10.27;43.20;93576.09;5116668;28;20191;-71
2023/03/15 10:22:39;;;;;;;10.15;6.22;;;;;;;10.45;44.54;93581.66;5116946;28;20222;-71
2023/03/15 10:25:13;;;;;;;6.45;5.07;;;;;;;10.53;44.21;93576.97;5117135;28;20225;-70
2023/03/15 10:27:42;;;;;;;5.32;4.82;;;;;;;10.59;43.41;93573.44;5116076;28;20233;-70
2023/03/15 10:30:16;;;;;;;5.78;5.28;;;;;;;10.63;43.18;93573.47;5116386;28;20609;-71
2023/03/15 10:32:46;;;;;;;6.72;5.65;;;;;;;10.64;42.97;93563.22;5116406;28;20607;-71
2023/03/15 10:35:16;;;;;;;6.70;5.50;;;;;;;10.66;42.35;93558.13;5116439;28;20206;-71
2023/03/15 10:37:43;;;;;;;8.65;6.32;;;;;;;10.66;42.60;93563.63;5116044;28;20203;-70
2023/03/15 10:40:14;;;;;;;8.27;6.60;;;;;;;10.48;42.17;93567.13;5116197;28;20188;-70
2023/03/15 10:42:43;;;;;;;7.63;5.78;;;;;;;10.46;43.13;93566.72;5119279;27;20215;-70
2023/03/15 10:45:20;;;;;;;6.85;6.20;;;;;;;10.40;42.52;93568.28;5119015;27;20221;-71
2023/03/15 10:47:48;;;;;;;9.52;6.88;;;;;;;10.38;42.21;93562.34;5119709;27;20614;-71
2023/03/15 10:50:26;;;;;;;8.98;6.57;;;;;;;10.30;42.74;93561.53;5137106;27;20175;-71
2023/03/15 10:52:55;;;;;;;9.45;6.55;;;;;;;10.32;43.26;93552.91;5119039;27;20191;-71
2023/03/15 10:55:30;;;;;;;8.07;6.28;;;;;;;10.32;43.12;93563.91;5119780;27;20191;-71
2023/03/15 10:57:58;;;;;;;10.27;6.47;;;;;;;10.32;43.32;93564.72;5119158;27;20195;-71
2023/03/15 11:00:30;;;;;;;9.15;7.50;;;;;;;10.33;43.30;93569.03;5118798;27;20202;-70
2023/03/15 11:03:05;;;;;;;10.52;7.35;;;;;;;10.32;42.41;93566.69;5118981;27;20592;-71
2023/03/15 11:05:40;;;;;;;8.40;6.55;;;;;;;10.24;42.78;93563.06;5119243;27;20203;-71
2023/03/15 11:08:11;;;;;;;6.30;5.68;;;;;;;10.30;43.31;93558.00;5118711;27;20239;-71
2023/03/15 11:10:38;;;;;;;5.97;5.22;;;;;;;10.32;43.09;93563.91;5119343;27;20187;-70
2023/03/15 11:13:10;;;;;;;6.65;5.90;;;;;;;10.34;43.02;93562.34;5118978;27;20202;-70
2023/03/15 11:15:38;;;;;;;6.30;5.57;;;;;;;10.35;43.51;93555.66;5119561;27;20599;-70
2023/03/15 11:18:05;;;;;;;8.00;5.85;;;;;;;10.40;44.06;93556.47;5119184;27;20244;-70
2023/03/15 11:20:36;;;;;;;5.68;4.97;;;;;;;10.41;43.45;93553.31;5119305;27;20199;-70
2023/03/15 11:23:14;;;;;;;6.13;5.20;;;;;;;10.41;43.15;93547.78;5118641;27;20215;-70
2023/03/15 11:25:40;;;;;;;7.38;5.70;;;;;;;10.41;43.18;93564.34;5118913;27;20259;-70
2023/03/15 11:28:15;;;;;;;7.43;5.55;;;;;;;10.40;43.47;93562.75;5118548;27;20190;-71
2023/03/15 11:30:43;;;;;;;7.10;5.63;;;;;;;10.38;43.56;93569.84;5119047;27;20520;-70
2023/03/15 11:33:22;;;;;;;5.68;4.55;;;;;;;10.26;46.26;93576.47;5137660;27;20190;-70
2023/03/15 11:35:51;;;;;;;4.50;4.10;;;;;;;10.20;47.31;93569.72;5137863;27;20217;-70
2023/03/15 11:38:26;;;;;;;7.22;4.50;;;;;;;10.06;47.65;93565.75;5119272;28;20225;-70